Time;durP1;ratioP1;P1;durP2;ratioP2;P2;SDS_P1;SDS_P2;PMS_P1;PMS_P2;Temp;Humidity;BMP_temperature;BMP_pressure;BME280_temperature;BME280_humidity;BME280_pressure;Samples;Min_cycle;Max_cycle;Signal;HPM_P1;HPM_P2
2023/05/07 00:00:17;;;;;;;6.10;5.07;;;;;;;13.81;57.45;101808.47;5026997;27;99882;-83
2023/05/07 00:02:44;;;;;;;5.70;5.13;;;;;;;13.83;57.63;101789.38;5020534;27;100599;-82
2023/05/07 00:05:10;;;;;;;7.47;6.13;;;;;;;13.85;57.68;101815.28;5027860;27;97013;-82
2023/05/07 00:07:35;;;;;;;6.50;5.83;;;;;;;13.77;57.73;101791.31;5023368;27;98056;-84
2023/05/07 00:10:01;;;;;;;6.90;5.77;;;;;;;13.80;57.81;101793.88;5022765;27;97256;-83
2023/05/07 00:12:26;;;;;;;7.60;6.03;;;;;;;13.70;57.82;101805.56;5022053;27;97290;-84
2023/05/07 00:14:51;;;;;;;7.40;6.37;;;;;;;13.62;57.99;101798.94;5020620;27;96933;-83
2023/05/07 00:17:17;;;;;;;6.60;5.90;;;;;;;13.60;58.07;101820.78;5017820;27;96789;-83
2023/05/07 00:19:42;;;;;;;8.27;6.00;;;;;;;13.58;57.94;101806.69;5019905;27;100420;-82
2023/05/07 00:22:08;;;;;;;7.80;6.30;;;;;;;13.60;57.96;101809.72;5021772;27;100690;-83
2023/05/07 00:24:33;;;;;;;8.83;6.20;;;;;;;13.53;57.96;101797.84;5022632;27;97181;-83
2023/05/07 00:26:58;;;;;;;9.27;5.93;;;;;;;13.56;58.04;101798.91;5019144;27;97637;-82
2023/05/07 00:29:24;;;;;;;8.37;6.87;;;;;;;13.56;58.13;101823.00;5037504;27;101627;-85
2023/05/07 00:31:50;;;;;;;8.27;6.00;;;;;;;13.59;57.74;101799.91;5024371;27;99015;-83
2023/05/07 00:34:15;;;;;;;5.97;5.37;;;;;;;13.54;58.04;101812.44;5018368;27;96865;-82
2023/05/07 00:36:41;;;;;;;10.40;6.30;;;;;;;13.52;58.06;101803.84;5022518;27;97518;-82
2023/05/07 00:39:06;;;;;;;7.20;5.20;;;;;;;13.49;57.90;101800.06;5021614;27;102179;-84
2023/05/07 00:41:32;;;;;;;8.00;6.47;;;;;;;13.51;57.85;101807.88;5018227;27;100454;-83
2023/05/07 00:43:57;;;;;;;8.30;5.60;;;;;;;13.49;58.07;101815.91;5020012;27;97669;-83
2023/05/07 00:46:23;;;;;;;7.90;5.60;;;;;;;13.46;57.97;101806.56;5024299;27;97211;-83
2023/05/07 00:48:50;;;;;;;8.60;6.50;;;;;;;13.45;58.09;101807.78;5019469;27;96854;-84
2023/05/07 00:51:17;;;;;;;9.43;7.00;;;;;;;13.41;57.93;101814.78;5023605;27;99938;-83
2023/05/07 00:53:43;;;;;;;8.70;5.50;;;;;;;13.38;58.06;101808.22;5021833;27;97203;-83
2023/05/07 00:56:08;;;;;;;9.23;6.23;;;;;;;13.41;58.15;101795.44;5018303;27;96834;-84
2023/05/07 00:58:34;;;;;;;7.40;5.60;;;;;;;13.45;58.19;101802.25;5017530;27;99242;-83
2023/05/07 01:01:00;;;;;;;7.70;6.10;;;;;;;13.42;58.18;101794.19;5019685;27;100182;-84
2023/05/07 01:03:25;;;;;;;8.80;6.33;;;;;;;13.39;58.19;101792.38;5023473;27;97628;-84
2023/05/07 01:05:53;;;;;;;10.10;6.30;;;;;;;13.37;57.99;101803.94;5020355;27;97138;-84
2023/05/07 01:08:18;;;;;;;7.80;6.50;;;;;;;13.31;58.17;101781.00;5018501;27;99543;-83
2023/05/07 01:10:45;;;;;;;8.17;6.47;;;;;;;13.34;58.21;101790.31;5021761;27;100525;-83
2023/05/07 01:13:12;;;;;;;7.00;5.90;;;;;;;13.32;58.30;101785.25;5024847;27;97335;-83
2023/05/07 01:15:38;;;;;;;7.60;6.20;;;;;;;13.31;58.36;101794.03;5015468;27;97724;-83
2023/05/07 01:18:03;;;;;;;6.57;5.87;;;;;;;13.26;58.35;101784.44;5017353;27;99335;-83
2023/05/07 01:20:29;;;;;;;8.20;6.03;;;;;;;13.30;58.53;101789.78;5015577;27;98576;-83
2023/05/07 01:22:56;;;;;;;10.77;6.50;;;;;;;13.32;58.46;101799.06;5022978;27;97179;-83
2023/05/07 01:25:22;;;;;;;9.73;6.90;;;;;;;13.28;58.51;101795.03;5027044;27;97408;-83
2023/05/07 01:27:47;;;;;;;8.20;6.57;;;;;;;13.28;58.46;101797.78;5020308;27;97132;-83
2023/05/07 01:30:13;;;;;;;7.03;6.33;;;;;;;13.28;58.45;101787.47;5021787;27;97150;-84
2023/05/07 01:32:41;;;;;;;6.70;6.03;;;;;;;13.25;58.62;101790.47;5021196;27;99980;-83
2023/05/07 01:35:11;;;;;;;8.00;6.03;;;;;;;13.23;58.56;101790.94;5022231;27;98674;-83
2023/05/07 01:37:37;;;;;;;8.57;6.40;;;;;;;13.25;58.55;101787.69;5021261;27;97968;-84
2023/05/07 01:40:03;;;;;;;9.27;7.10;;;;;;;13.27;58.56;101797.03;5022565;27;99584;-84
2023/05/07 01:42:29;;;;;;;8.87;6.57;;;;;;;13.23;58.64;101793.72;5025596;27;97186;-83
2023/05/07 01:44:55;;;;;;;9.07;7.37;;;;;;;13.20;58.72;101797.44;5021336;27;96663;-83
2023/05/07 01:47:21;;;;;;;8.43;7.00;;;;;;;13.21;58.65;101810.00;5019819;27;99483;-82
2023/05/07 01:49:46;;;;;;;7.67;6.97;;;;;;;13.24;58.60;101800.75;5019019;27;99221;-81
2023/05/07 01:52:11;;;;;;;11.73;7.70;;;;;;;13.23;58.66;101779.13;5019947;27;97089;-84
2023/05/07 01:54:37;;;;;;;9.40;7.00;;;;;;;13.25;58.67;101795.97;5024305;27;96827;-83
2023/05/07 01:57:02;;;;;;;10.43;7.07;;;;;;;13.25;58.54;101794.00;5017647;27;100527;-83
2023/05/07 01:59:28;;;;;;;9.17;7.30;;;;;;;13.24;58.63;101811.78;5020161;27;100233;-83
2023/05/07 02:01:53;;;;;;;8.87;6.67;;;;;;;13.28;58.71;101809.59;5020811;27;97307;-83
2023/05/07 02:04:18;;;;;;;9.27;7.30;;;;;;;13.32;58.86;101810.13;5022511;27;96747;-82
2023/05/07 02:06:44;;;;;;;8.60;7.20;;;;;;;13.41;58.86;101810.00;5017861;27;97962;-83
2023/05/07 02:09:09;;;;;;;8.00;6.50;;;;;;;13.43;58.54;101826.88;5022201;27;101961;-83
2023/05/07 02:11:34;;;;;;;8.13;6.23;;;;;;;13.45;58.54;101805.03;5026297;27;99550;-83
2023/05/07 02:14:00;;;;;;;6.43;5.73;;;;;;;13.42;58.38;101816.31;5021241;27;96747;-82
2023/05/07 02:16:25;;;;;;;8.67;6.70;;;;;;;13.34;58.58;101806.91;5024368;27;100648;-84
2023/05/07 02:18:50;;;;;;;9.00;6.70;;;;;;;13.22;58.64;101803.22;5022345;27;99580;-83
2023/05/07 02:21:16;;;;;;;6.83;5.90;;;;;;;13.23;58.87;101815.06;5019283;27;97269;-81
2023/05/07 02:23:41;;;;;;;6.77;5.93;;;;;;;13.25;58.79;101813.31;5018697;27;97641;-83
2023/05/07 02:26:07;;;;;;;7.47;6.10;;;;;;;13.32;58.70;101806.63;5022313;27;108355;-83
2023/05/07 02:28:33;;;;;;;6.17;5.60;;;;;;;13.24;58.88;101825.63;5020071;27;97919;-83
2023/05/07 02:30:59;;;;;;;7.43;5.87;;;;;;;13.36;58.42;101810.72;5021767;27;96749;-83
2023/05/07 02:33:25;;;;;;;7.47;5.83;;;;;;;13.36;58.74;101791.38;5029631;27;97377;-82
2023/05/07 02:35:51;;;;;;;6.77;6.13;;;;;;;13.32;58.53;101807.38;5023392;27;98616;-83
2023/05/07 02:38:17;;;;;;;7.53;5.73;;;;;;;13.28;58.54;101793.00;5017687;27;99788;-83
2023/05/07 02:40:42;;;;;;;6.73;5.87;;;;;;;13.29;58.57;101804.81;5028601;27;97323;-80
2023/05/07 02:43:08;;;;;;;9.33;6.17;;;;;;;13.28;58.70;101800.56;5023545;27;96918;-83
2023/05/07 02:45:33;;;;;;;7.33;6.00;;;;;;;13.26;58.98;101798.25;5017757;27;99446;-83
2023/05/07 02:47:58;;;;;;;6.83;6.00;;;;;;;13.27;58.92;101802.56;5026305;27;99315;-83
2023/05/07 02:50:25;;;;;;;5.43;4.90;;;;;;;13.27;58.75;101804.56;5022285;27;96950;-83
2023/05/07 02:52:50;;;;;;;5.20;4.67;;;;;;;13.25;58.69;101807.81;5022826;27;96696;-83
2023/05/07 02:55:15;;;;;;;7.83;5.93;;;;;;;13.25;58.67;101807.81;5019486;27;99525;-82
2023/05/07 02:57:41;;;;;;;5.70;5.13;;;;;;;13.24;58.74;101816.56;5025514;27;100135;-83
2023/05/07 03:00:24;;;;;;;4.83;4.33;;;;;;;13.22;59.47;101814.28;5016200;27;97209;-83
2023/05/07 03:02:50;;;;;;;5.40;4.90;;;;;;;13.20;58.72;101804.94;5020637;27;97207;-83
2023/05/07 03:05:15;;;;;;;5.50;5.00;;;;;;;13.26;58.72;101812.06;5018421;27;99384;-83
2023/05/07 03:07:44;;;;;;;4.97;4.57;;;;;;;13.17;58.75;101794.88;5021116;27;96606;-82
2023/05/07 03:10:10;;;;;;;5.27;4.87;;;;;;;13.13;58.78;101786.00;5016702;27;96986;-83
2023/05/07 03:12:35;;;;;;;5.00;4.60;;;;;;;13.13;58.83;101816.41;5022728;27;97915;-83
2023/05/07 03:15:00;;;;;;;6.70;5.27;;;;;;;13.11;59.01;101797.56;5023615;27;100460;-83
2023/05/07 03:17:26;;;;;;;6.97;4.93;;;;;;;13.14;58.91;101795.84;5017114;27;97739;-82
2023/05/07 03:19:51;;;;;;;5.67;4.57;;;;;;;13.20;58.77;101788.38;5020032;27;97060;-82
2023/05/07 03:22:17;;;;;;;4.70;4.30;;;;;;;13.21;58.87;101776.09;5026571;27;96758;-81
2023/05/07 03:24:42;;;;;;;5.50;4.77;;;;;;;13.20;58.65;101783.59;5022405;27;97993;-81
2023/05/07 03:27:07;;;;;;;5.30;4.60;;;;;;;13.15;58.87;101797.38;5021966;27;102812;-81
2023/05/07 03:29:32;;;;;;;5.47;4.70;;;;;;;13.10;59.02;101776.69;5025652;27;97245;-82
2023/05/07 03:31:58;;;;;;;5.33;4.43;;;;;;;13.15;59.01;101795.34;5022723;27;97143;-82
2023/05/07 03:34:23;;;;;;;5.27;4.77;;;;;;;13.10;58.92;101796.03;5023930;27;100486;-82
2023/05/07 03:36:49;;;;;;;4.90;4.40;;;;;;;13.06;59.12;101792.69;5020487;27;100842;-81
2023/05/07 03:39:14;;;;;;;7.93;5.20;;;;;;;13.09;59.06;101832.44;5022687;27;97122;-81
2023/05/07 03:41:40;;;;;;;5.53;4.93;;;;;;;13.10;58.96;101801.56;5019330;27;96836;-83
2023/05/07 03:44:05;;;;;;;5.30;4.20;;;;;;;13.10;59.31;101806.34;5019310;27;99192;-82
2023/05/07 03:46:32;;;;;;;4.47;4.10;;;;;;;13.12;59.08;101804.63;5016002;27;99301;-82
2023/05/07 03:48:58;;;;;;;5.27;4.77;;;;;;;13.14;59.14;101809.66;5038240;27;97447;-83
2023/05/07 03:51:23;;;;;;;6.90;5.03;;;;;;;13.15;59.07;101800.88;5024660;27;97115;-83
2023/05/07 03:53:48;;;;;;;5.80;4.77;;;;;;;13.23;58.78;101813.06;5022643;27;96957;-82
2023/05/07 03:56:14;;;;;;;5.70;4.87;;;;;;;13.25;58.99;101798.75;5025181;27;97238;-82
2023/05/07 03:58:39;;;;;;;7.67;4.90;;;;;;;13.25;58.86;101798.75;5021720;28;96741;-82
2023/05/07 04:01:04;;;;;;;4.83;4.43;;;;;;;13.20;58.89;101797.44;5018258;27;97764;-82
2023/05/07 04:03:30;;;;;;;5.30;4.80;;;;;;;13.23;58.97;101804.00;5020690;28;99557;-81
2023/05/07 04:05:55;;;;;;;5.20;4.70;;;;;;;13.21;58.98;101812.78;5022015;27;106422;-82
2023/05/07 04:08:20;;;;;;;5.93;4.77;;;;;;;13.16;59.08;101809.91;5023014;27;97330;-82
2023/05/07 04:10:46;;;;;;;5.10;4.53;;;;;;;13.09;59.16;101800.03;5020686;27;97263;-82
2023/05/07 04:13:11;;;;;;;4.27;3.97;;;;;;;13.06;59.24;101817.56;5022470;27;97483;-82
2023/05/07 04:15:36;;;;;;;8.63;4.70;;;;;;;13.05;59.17;101802.25;5024519;27;114337;-82
2023/05/07 04:18:02;;;;;;;5.07;4.33;;;;;;;13.06;59.09;101814.81;5025211;27;96944;-82
2023/05/07 04:20:27;;;;;;;5.03;4.57;;;;;;;13.01;59.20;101826.53;5025623;27;97360;-81
2023/05/07 04:22:52;;;;;;;5.03;4.63;;;;;;;13.00;59.20;101816.69;5023599;27;97643;-82
2023/05/07 04:25:18;;;;;;;4.53;4.13;;;;;;;12.96;59.27;101821.69;5020393;27;99140;-82
2023/05/07 04:27:43;;;;;;;4.50;4.20;;;;;;;12.97;59.33;101820.44;5025372;27;97415;-83
2023/05/07 04:30:09;;;;;;;4.30;3.90;;;;;;;13.02;59.36;101819.75;5024576;27;97378;-82
2023/05/07 04:32:36;;;;;;;3.97;3.67;;;;;;;13.06;59.12;101833.41;5022401;27;101042;-82
2023/05/07 04:35:01;;;;;;;6.17;4.47;;;;;;;13.04;59.17;101835.84;5024850;27;100812;-83
2023/05/07 04:37:27;;;;;;;5.80;4.70;;;;;;;13.02;59.08;101832.81;5017108;27;96854;-81
2023/05/07 04:39:52;;;;;;;5.20;4.70;;;;;;;12.97;59.12;101836.25;5019886;27;97140;-82
2023/05/07 04:42:18;;;;;;;4.83;4.30;;;;;;;13.00;59.19;101818.69;5026459;27;99692;-83
2023/05/07 04:44:45;;;;;;;5.30;4.90;;;;;;;12.96;59.32;101818.16;5020588;27;97091;-83
2023/05/07 04:47:11;;;;;;;4.60;4.20;;;;;;;13.00;59.27;101838.81;5023261;27;97769;-83
2023/05/07 04:49:37;;;;;;;4.87;4.40;;;;;;;13.04;59.08;101828.31;5020897;27;97397;-83
2023/05/07 04:52:03;;;;;;;4.13;3.80;;;;;;;13.06;59.17;101834.16;5022208;27;100490;-84
2023/05/07 04:54:29;;;;;;;4.57;4.17;;;;;;;13.05;59.00;101843.69;5021831;27;97562;-82
2023/05/07 04:56:54;;;;;;;4.93;4.40;;;;;;;13.04;59.15;101846.91;5022795;27;96837;-83
2023/05/07 04:59:20;;;;;;;4.33;4.00;;;;;;;13.05;59.12;101846.44;5027582;27;97206;-82
2023/05/07 05:01:45;;;;;;;4.60;4.13;;;;;;;13.06;59.08;101861.03;5031225;28;99555;-83
2023/05/07 05:04:10;;;;;;;4.90;4.50;;;;;;;13.09;59.34;101871.09;5021816;27;102202;-83
2023/05/07 05:06:36;;;;;;;6.73;4.33;;;;;;;13.11;59.06;101852.81;5023774;27;96824;-83
2023/05/07 05:09:01;;;;;;;4.70;4.30;;;;;;;13.13;59.19;101872.44;5019234;27;98756;-83
2023/05/07 05:11:26;;;;;;;6.20;4.27;;;;;;;13.06;59.10;101872.81;5018722;27;98378;-84
2023/05/07 05:13:52;;;;;;;5.73;4.63;;;;;;;13.05;59.25;101915.53;5017099;27;99084;-82
2023/05/07 05:16:17;;;;;;;4.80;4.40;;;;;;;13.07;59.24;101876.34;5020073;27;96963;-83
2023/05/07 05:18:43;;;;;;;4.90;4.50;;;;;;;13.11;59.05;101854.81;5021738;27;97731;-84
2023/05/07 05:21:08;;;;;;;5.80;5.13;;;;;;;13.09;59.07;101873.88;5021631;27;97551;-83
2023/05/07 05:23:33;;;;;;;5.03;4.67;;;;;;;13.04;59.11;101871.78;5024733;27;99025;-83
2023/05/07 05:25:59;;;;;;;4.60;4.20;;;;;;;13.06;59.26;101856.25;5021241;28;97160;-83
2023/05/07 05:28:24;;;;;;;4.67;4.33;;;;;;;13.09;59.07;101860.06;5025639;27;97125;-83
2023/05/07 05:30:50;;;;;;;4.67;4.27;;;;;;;13.10;58.91;101869.88;5025788;27;99625;-82
2023/05/07 05:33:15;;;;;;;4.63;4.23;;;;;;;13.12;59.05;101873.69;5021102;27;99126;-83
2023/05/07 05:35:42;;;;;;;4.83;4.40;;;;;;;13.14;59.10;101871.22;5019360;27;99467;-83
2023/05/07 05:38:07;;;;;;;4.90;4.50;;;;;;;13.17;59.02;101852.91;5018045;27;97177;-83
2023/05/07 05:40:33;;;;;;;4.47;4.17;;;;;;;13.23;59.04;101876.63;5022220;27;100542;-83
2023/05/07 05:42:58;;;;;;;4.57;4.17;;;;;;;13.23;58.86;101864.78;5018608;28;100354;-82
2023/05/07 05:45:24;;;;;;;5.10;4.57;;;;;;;13.27;58.89;101901.28;5026098;27;96925;-82
2023/05/07 05:47:50;;;;;;;5.40;4.90;;;;;;;13.26;58.90;101891.44;5022751;27;97436;-84
2023/05/07 05:50:15;;;;;;;5.90;5.40;;;;;;;13.21;58.90;101879.09;5018439;27;97924;-82
2023/05/07 05:52:40;;;;;;;4.53;4.13;;;;;;;13.23;58.96;101890.44;5019274;27;97202;-82
2023/05/07 05:55:06;;;;;;;5.03;4.63;;;;;;;13.26;58.67;101886.69;5019771;27;97155;-84
2023/05/07 05:57:32;;;;;;;5.10;4.60;;;;;;;13.31;58.83;101880.50;5020472;27;97295;-83
2023/05/07 05:59:57;;;;;;;5.37;4.90;;;;;;;13.31;58.53;101886.03;5020429;27;99761;-82
2023/05/07 06:02:23;;;;;;;4.57;4.17;;;;;;;13.31;58.76;101899.84;5026108;28;98892;-81
2023/05/07 06:04:48;;;;;;;4.93;4.43;;;;;;;13.30;58.53;101886.50;5020524;27;97407;-83
2023/05/07 06:07:13;;;;;;;4.23;3.93;;;;;;;13.36;58.50;101893.66;5016626;27;97748;-82
2023/05/07 06:09:39;;;;;;;5.10;4.33;;;;;;;13.28;58.45;101873.16;5026470;27;110361;-82
2023/05/07 06:12:04;;;;;;;7.17;4.43;;;;;;;13.35;58.54;101883.03;5023133;27;97323;-83
2023/05/07 06:14:30;;;;;;;4.37;4.07;;;;;;;13.37;58.37;101875.78;5021961;27;96965;-82
2023/05/07 06:16:55;;;;;;;4.10;3.80;;;;;;;13.43;58.51;101884.91;5019964;28;97106;-82
2023/05/07 06:19:23;;;;;;;4.40;4.00;;;;;;;13.46;58.31;101881.19;5025356;27;99149;-83
2023/05/07 06:21:49;;;;;;;4.73;3.43;;;;;;;13.46;58.04;101919.13;5020050;27;97100;-83
2023/05/07 06:24:14;;;;;;;3.97;3.67;;;;;;;13.50;58.23;101881.75;5013435;27;96901;-82
2023/05/07 06:26:40;;;;;;;4.20;3.80;;;;;;;13.51;58.11;101891.59;5015395;27;96860;-83
2023/05/07 06:29:06;;;;;;;4.20;3.80;;;;;;;13.53;58.06;101894.63;5025890;27;99198;-83
2023/05/07 06:31:31;;;;;;;4.00;3.70;;;;;;;13.61;58.06;101903.25;5015746;27;100041;-83
2023/05/07 06:33:57;;;;;;;4.43;4.07;;;;;;;13.59;58.05;101886.38;5016173;27;97294;-82
2023/05/07 06:36:22;;;;;;;4.53;4.13;;;;;;;13.63;58.21;101902.78;5022083;27;96976;-82
2023/05/07 06:38:48;;;;;;;4.40;4.00;;;;;;;13.70;58.21;101888.53;5017455;27;98000;-82
2023/05/07 06:41:13;;;;;;;4.83;4.40;;;;;;;13.77;57.99;101890.91;5020138;27;96615;-83
2023/05/07 06:43:38;;;;;;;4.80;4.40;;;;;;;13.79;57.96;101899.47;5021476;27;97187;-82
2023/05/07 06:46:05;;;;;;;4.73;4.30;;;;;;;13.83;57.90;101886.94;5022178;27;97362;-83
2023/05/07 06:48:30;;;;;;;3.87;3.57;;;;;;;13.89;57.70;101900.88;5025128;27;100898;-83
2023/05/07 06:50:57;;;;;;;4.30;3.90;;;;;;;13.93;57.82;101887.56;5022640;27;99046;-83
2023/05/07 06:53:23;;;;;;;4.03;3.67;;;;;;;13.90;57.73;101866.41;5024056;27;97061;-83
2023/05/07 06:55:48;;;;;;;4.50;4.20;;;;;;;13.97;57.77;101879.81;5023811;27;97288;-83
2023/05/07 06:58:14;;;;;;;4.33;3.93;;;;;;;13.96;57.42;101876.28;5019515;27;99200;-83
2023/05/07 07:00:40;;;;;;;6.77;4.13;;;;;;;13.98;57.55;101878.56;5020987;27;97325;-83
2023/05/07 07:03:06;;;;;;;3.00;2.80;;;;;;;14.07;57.78;101875.66;5024569;27;96613;-84
2023/05/07 07:05:31;;;;;;;3.60;3.30;;;;;;;14.17;57.76;101877.03;5027957;28;97137;-83
2023/05/07 07:07:56;;;;;;;4.77;4.37;;;;;;;14.26;57.54;101885.91;5022126;27;100713;-83
2023/05/07 07:10:22;;;;;;;4.07;3.70;;;;;;;14.35;57.38;101901.66;5027739;27;100270;-83
2023/05/07 07:12:48;;;;;;;3.80;3.50;;;;;;;14.35;57.15;101907.19;5022720;27;97237;-84
2023/05/07 07:15:14;;;;;;;4.20;3.90;;;;;;;14.44;57.15;101887.63;5023397;27;98956;-83
2023/05/07 07:17:40;;;;;;;4.30;3.90;;;;;;;14.50;56.93;101880.16;5021536;27;97436;-83
2023/05/07 07:20:06;;;;;;;4.23;3.83;;;;;;;14.51;56.97;101903.84;5018503;27;99209;-83
2023/05/07 07:22:32;;;;;;;9.03;3.60;;;;;;;14.52;56.96;101896.28;5019445;27;97721;-83
2023/05/07 07:24:57;;;;;;;3.33;3.13;;;;;;;14.53;56.76;101898.56;5021662;27;96620;-84
2023/05/07 07:27:22;;;;;;;3.90;3.60;;;;;;;14.55;56.91;101901.59;5019349;27;98257;-84
2023/05/07 07:29:48;;;;;;;3.90;3.60;;;;;;;14.58;56.88;101906.16;5026931;27;99488;-84
2023/05/07 07:32:13;;;;;;;4.37;4.07;;;;;;;14.59;56.88;101907.66;5024425;28;97564;-82
2023/05/07 07:34:38;;;;;;;5.33;3.97;;;;;;;14.61;57.00;101907.19;5021112;27;96899;-84
2023/05/07 07:37:05;;;;;;;3.83;3.53;;;;;;;14.62;56.76;101925.31;5027030;27;99761;-83
2023/05/07 07:39:32;;;;;;;4.80;4.40;;;;;;;14.66;56.82;101921.09;5019506;27;99397;-83
2023/05/07 07:41:57;;;;;;;4.27;3.97;;;;;;;14.69;56.64;101920.13;5022269;27;97558;-82
2023/05/07 07:44:22;;;;;;;4.97;4.47;;;;;;;14.73;56.74;101925.44;5031431;27;97002;-83
2023/05/07 07:46:48;;;;;;;3.60;3.40;;;;;;;14.70;56.57;101918.84;5020428;27;99136;-84
2023/05/07 07:49:14;;;;;;;4.20;3.87;;;;;;;14.71;56.73;101920.38;5017886;27;97402;-82
2023/05/07 07:51:39;;;;;;;4.53;4.17;;;;;;;14.67;56.53;101919.09;5027162;27;96824;-81
2023/05/07 07:54:05;;;;;;;5.33;4.80;;;;;;;14.66;56.51;101934.19;5019911;27;97163;-82
2023/05/07 07:56:33;;;;;;;4.87;4.47;;;;;;;14.60;56.71;101944.44;5022949;27;97391;-82
2023/05/07 07:58:58;;;;;;;5.90;4.47;;;;;;;14.68;56.66;101926.13;5017694;27;98954;-81
2023/05/07 08:01:24;;;;;;;5.10;4.60;;;;;;;14.69;56.64;101928.44;5015392;27;97229;-82
2023/05/07 08:03:50;;;;;;;6.23;4.97;;;;;;;14.71;56.46;101939.00;5016509;27;97222;-82
2023/05/07 08:06:15;;;;;;;4.47;4.07;;;;;;;14.78;56.46;101930.28;5020564;27;100421;-81
2023/05/07 08:08:40;;;;;;;4.77;4.37;;;;;;;14.82;56.55;101928.81;5022419;27;100434;-82
2023/05/07 08:11:06;;;;;;;4.67;4.27;;;;;;;14.86;56.44;101929.34;5011193;27;98079;-81
2023/05/07 08:13:31;;;;;;;5.27;4.77;;;;;;;14.85;56.34;101933.34;5016158;27;97297;-82
2023/05/07 08:15:57;;;;;;;4.13;3.73;;;;;;;14.90;56.26;101924.31;5014571;27;97995;-80
2023/05/07 08:18:24;;;;;;;4.90;4.40;;;;;;;14.94;56.18;101927.63;5018580;27;99167;-81
2023/05/07 08:20:50;;;;;;;4.17;3.87;;;;;;;14.97;56.08;101940.50;5015912;27;97093;-82
2023/05/07 08:23:15;;;;;;;5.20;4.80;;;;;;;14.93;56.29;101923.34;5011692;27;97980;-82
2023/05/07 08:25:42;;;;;;;4.83;4.37;;;;;;;15.07;55.91;101932.03;5012413;27;99737;-83
2023/05/07 08:28:07;;;;;;;4.70;4.30;;;;;;;15.14;55.87;101920.47;5013942;27;97772;-83
2023/05/07 08:30:33;;;;;;;5.00;4.50;;;;;;;15.10;55.95;101922.72;5016185;27;98539;-81
2023/05/07 08:32:58;;;;;;;4.70;4.30;;;;;;;15.12;56.00;101939.59;5014347;27;97565;-82
2023/05/07 08:35:25;;;;;;;5.10;4.70;;;;;;;15.10;56.00;101931.78;5014001;27;99206;-82
2023/05/07 08:37:50;;;;;;;4.53;4.13;;;;;;;15.16;55.98;101937.38;5013575;27;100721;-83
2023/05/07 08:40:16;;;;;;;3.90;3.60;;;;;;;15.21;56.02;101931.88;5014282;27;98045;-82
2023/05/07 08:42:43;;;;;;;4.53;4.23;;;;;;;15.23;55.84;101945.25;5015849;27;97668;-81
2023/05/07 08:45:10;;;;;;;5.30;4.23;;;;;;;15.32;55.77;101933.97;5013715;27;97240;-82
2023/05/07 08:47:49;;;;;;;3.97;3.67;;;;;;;15.37;55.51;101930.47;5032297;27;99572;-82
2023/05/07 08:50:15;;;;;;;4.60;4.30;;;;;;;15.45;55.56;101932.31;5012712;27;97844;-82
2023/05/07 08:52:41;;;;;;;5.33;4.83;;;;;;;15.49;55.42;101951.50;5014131;27;97120;-81
2023/05/07 08:55:08;;;;;;;5.03;4.63;;;;;;;15.53;55.62;101952.06;5013660;27;99391;-83
2023/05/07 08:57:33;;;;;;;5.00;4.50;;;;;;;15.65;55.58;101948.06;5014376;27;98093;-82
2023/05/07 08:59:59;;;;;;;5.53;5.03;;;;;;;15.68;55.55;101947.81;5014261;27;97213;-82
2023/05/07 09:02:24;;;;;;;4.83;4.47;;;;;;;15.77;55.49;101965.56;5015830;27;97143;-82
2023/05/07 09:04:50;;;;;;;5.30;4.80;;;;;;;15.69;55.34;101946.59;5016577;27;100464;-81
2023/05/07 09:07:16;;;;;;;5.40;4.90;;;;;;;15.77;55.50;102007.91;5019042;27;97163;-82
2023/05/07 09:09:43;;;;;;;5.20;4.80;;;;;;;15.83;55.07;101950.44;5017668;27;97455;-82
2023/05/07 09:12:09;;;;;;;5.33;4.93;;;;;;;15.80;55.02;101945.88;5022291;27;97146;-82
2023/05/07 09:14:35;;;;;;;5.73;4.03;;;;;;;15.83;54.99;101950.44;5013403;27;98504;-83
2023/05/07 09:17:00;;;;;;;4.53;4.13;;;;;;;15.89;54.80;101954.00;5018352;27;97345;-82
2023/05/07 09:19:26;;;;;;;4.67;4.37;;;;;;;15.86;55.10;101952.22;5024226;27;97251;-82
2023/05/07 09:22:04;;;;;;;4.33;4.03;;;;;;;15.90;54.94;101991.59;5015406;27;97005;-81
2023/05/07 09:24:34;;;;;;;4.20;3.90;;;;;;;16.00;54.96;101956.06;5021469;27;101039;-83
2023/05/07 09:27:01;;;;;;;4.10;3.80;;;;;;;16.02;54.96;101970.97;5016051;27;98938;-82
2023/05/07 09:29:28;;;;;;;4.30;3.90;;;;;;;16.04;54.67;101951.78;5017987;27;97564;-83
2023/05/07 09:31:54;;;;;;;4.83;4.43;;;;;;;15.99;54.32;101958.06;5019212;27;97113;-82
2023/05/07 09:34:19;;;;;;;4.60;4.20;;;;;;;16.07;54.55;101961.91;5014691;27;99619;-83
2023/05/07 09:36:45;;;;;;;4.37;3.97;;;;;;;16.11;54.65;101956.09;5017302;27;100148;-83
2023/05/07 09:39:10;;;;;;;4.40;4.10;;;;;;;16.09;54.43;101964.94;5019064;27;96968;-83
2023/05/07 09:41:46;;;;;;;4.10;3.80;;;;;;;16.24;54.23;101954.41;5017611;27;96951;-82
2023/05/07 09:44:15;;;;;;;3.70;3.40;;;;;;;16.38;54.65;101972.84;5019681;27;99688;-83
2023/05/07 09:46:43;;;;;;;3.33;3.13;;;;;;;16.57;54.47;101953.75;5015251;27;98209;-82
2023/05/07 09:49:15;;;;;;;3.00;2.80;;;;;;;16.70;53.95;101956.03;5016797;27;96753;-82
2023/05/07 09:51:48;;;;;;;5.57;3.77;;;;;;;16.70;53.28;101958.81;5019361;27;96898;-82
2023/05/07 09:54:14;;;;;;;4.10;3.80;;;;;;;16.74;54.03;101954.53;5023399;27;99395;-83
2023/05/07 09:56:41;;;;;;;3.70;3.40;;;;;;;16.83;53.56;101964.66;5017581;27;100483;-81
2023/05/07 09:59:08;;;;;;;3.80;3.50;;;;;;;16.87;53.52;101951.25;5022420;27;97041;-82
2023/05/07 10:01:36;;;;;;;3.40;3.10;;;;;;;16.93;53.02;101966.69;5022120;27;96726;-83
2023/05/07 10:04:03;;;;;;;2.97;2.80;;;;;;;16.96;53.46;101964.91;5017364;27;103281;-82
2023/05/07 10:06:30;;;;;;;3.60;3.30;;;;;;;17.06;53.15;101952.25;5014297;27;98971;-83
2023/05/07 10:08:56;;;;;;;4.07;3.23;;;;;;;17.10;53.07;101936.09;5019214;27;97241;-83
2023/05/07 10:11:22;;;;;;;3.20;3.00;;;;;;;17.25;53.41;101953.28;5021746;27;98003;-81
2023/05/07 10:13:48;;;;;;;3.43;3.17;;;;;;;17.55;53.18;101942.38;5015539;27;97245;-83
2023/05/07 10:16:14;;;;;;;2.67;2.57;;;;;;;17.75;52.59;101958.78;5010151;27;100184;-83
2023/05/07 10:18:40;;;;;;;2.83;2.73;;;;;;;17.73;52.30;101945.38;5022710;27;97030;-82
2023/05/07 10:21:16;;;;;;;3.23;2.90;;;;;;;17.60;52.33;101939.59;5015302;27;97128;-84
2023/05/07 10:23:46;;;;;;;3.00;2.80;;;;;;;17.60;52.47;101945.16;5016812;28;96936;-82
2023/05/07 10:26:12;;;;;;;2.70;2.43;;;;;;;17.63;52.54;101948.94;5017524;27;100328;-83
2023/05/07 10:28:40;;;;;;;2.40;2.20;;;;;;;17.68;52.10;101948.94;5034104;27;97229;-82
2023/05/07 10:31:42;;;;;;;3.00;2.73;;;;;;;17.78;51.53;101941.03;5013071;27;97984;-82
2023/05/07 10:34:11;;;;;;;3.67;2.93;;;;;;;17.89;52.05;101944.53;5014421;27;98029;-82
2023/05/07 10:36:37;;;;;;;2.90;2.70;;;;;;;17.90;52.06;101937.72;5010396;27;99764;-82
2023/05/07 10:39:03;;;;;;;3.03;2.83;;;;;;;17.93;51.76;101936.69;5010960;27;98924;-83
2023/05/07 10:41:28;;;;;;;3.57;3.37;;;;;;;17.85;51.78;101955.19;5012125;27;98737;-83
2023/05/07 10:43:54;;;;;;;3.30;3.00;;;;;;;17.83;51.86;101951.41;5013891;27;101027;-83
2023/05/07 10:46:20;;;;;;;3.63;3.33;;;;;;;17.85;51.87;101954.44;5015108;27;97778;-83
2023/05/07 10:49:12;;;;;;;3.33;3.13;;;;;;;17.81;51.26;101949.13;5016691;27;97897;-82
2023/05/07 10:51:38;;;;;;;3.50;2.80;;;;;;;17.83;51.62;101963.31;5014158;27;97348;-82
2023/05/07 10:54:09;;;;;;;3.53;2.70;;;;;;;18.01;51.18;101964.75;5016661;27;97294;-83
2023/05/07 10:56:35;;;;;;;3.57;3.37;;;;;;;18.02;51.64;101960.69;5015106;27;97143;-82
2023/05/07 10:59:19;;;;;;;3.00;2.80;;;;;;;18.21;50.77;101960.88;5013100;27;97229;-82
2023/05/07 11:01:54;;;;;;;2.67;2.47;;;;;;;18.44;51.14;101953.91;5015721;27;99175;-81
2023/05/07 11:04:25;;;;;;;2.90;2.70;;;;;;;18.70;51.41;101971.00;5014689;27;100827;-81
2023/05/07 11:07:09;;;;;;;2.60;2.50;;;;;;;19.07;50.15;101967.69;5017037;27;99639;-82
2023/05/07 11:09:53;;;;;;;3.67;2.73;;;;;;;19.31;49.36;101957.31;5016109;27;97437;-83
2023/05/07 11:12:41;;;;;;;4.00;2.80;;;;;;;19.34;49.05;101953.53;5011622;27;98253;-83
2023/05/07 11:15:11;;;;;;;4.00;2.73;;;;;;;19.57;49.43;101967.25;5000905;27;99551;-83
2023/05/07 11:18:05;;;;;;;2.93;2.67;;;;;;;19.74;48.10;101962.25;5015596;27;97116;-85
2023/05/07 11:20:47;;;;;;;2.70;2.50;;;;;;;19.86;47.82;101953.22;4998274;27;102334;-83